sensor_id;sensor_type;location;lat;lon;timestamp;pressure;altitude;pressure_sealevel;temperature;humidity
75549;BME280;64133;56.002;37.208;2024-03-23T00:55:49;97988.71;;;2.30;75.40
75549;BME280;64133;56.002;37.208;2024-03-23T01:00:54;97985.88;;;2.28;75.87
75549;BME280;64133;56.002;37.208;2024-03-23T01:06:01;97981.89;;;2.16;76.86
75549;BME280;64133;56.002;37.208;2024-03-23T01:11:06;97971.80;;;2.24;76.69
75549;BME280;64133;56.002;37.208;2024-03-23T01:16:11;97967.45;;;2.31;77.40
75549;BME280;64133;56.002;37.208;2024-03-23T01:21:16;97953.88;;;2.27;77.67
75549;BME280;64133;56.002;37.208;2024-03-23T01:26:24;97946.14;;;2.20;78.36
75549;BME280;64133;56.002;37.208;2024-03-23T01:31:29;97936.84;;;2.47;78.56
75549;BME280;64133;56.002;37.208;2024-03-23T01:36:36;97927.42;;;2.28;78.46
75549;BME280;64133;56.002;37.208;2024-03-23T01:41:41;97918.87;;;2.20;79.25
75549;BME280;64133;56.002;37.208;2024-03-23T01:46:46;97913.13;;;2.28;78.89
75549;BME280;64133;56.002;37.208;2024-03-23T01:51:51;97901.34;;;2.11;80.03
75549;BME280;64133;56.002;37.208;2024-03-23T01:56:56;97892.17;;;1.99;81.04
75549;BME280;64133;56.002;37.208;2024-03-23T02:02:01;97884.85;;;1.99;81.60
75549;BME280;64133;56.002;37.208;2024-03-23T02:07:06;97881.98;;;2.09;81.62
75549;BME280;64133;56.002;37.208;2024-03-23T02:12:12;97862.23;;;2.07;81.66
75549;BME280;64133;56.002;37.208;2024-03-23T02:17:19;97854.33;;;2.26;81.44
75549;BME280;64133;56.002;37.208;2024-03-23T02:22:26;97849.25;;;2.07;81.86
75549;BME280;64133;56.002;37.208;2024-03-23T02:27:31;97840.64;;;2.06;82.65
75549;BME280;64133;56.002;37.208;2024-03-23T02:32:36;97825.83;;;2.19;82.55
75549;BME280;64133;56.002;37.208;2024-03-23T02:37:41;97815.97;;;2.06;82.99
75549;BME280;64133;56.002;37.208;2024-03-23T02:42:46;97801.06;;;2.03;83.38
75549;BME280;64133;56.002;37.208;2024-03-23T02:47:51;97799.25;;;2.21;83.22
75549;BME280;64133;56.002;37.208;2024-03-23T02:52:56;97795.27;;;2.29;83.14
75549;BME280;64133;56.002;37.208;2024-03-23T02:58:01;97782.02;;;2.26;83.49
75549;BME280;64133;56.002;37.208;2024-03-23T03:03:07;97774.28;;;2.37;83.91
75549;BME280;64133;56.002;37.208;2024-03-23T03:08:11;97770.24;;;2.28;83.90
75549;BME280;64133;56.002;37.208;2024-03-23T03:13:16;97762.67;;;2.30;84.59
75549;BME280;64133;56.002;37.208;2024-03-23T03:18:22;97756.03;;;2.20;85.20
75549;BME280;64133;56.002;37.208;2024-03-23T03:23:27;97761.72;;;2.25;85.31
75549;BME280;64133;56.002;37.208;2024-03-23T03:28:32;97742.70;;;2.25;85.38
75549;BME280;64133;56.002;37.208;2024-03-23T03:33:37;97736.95;;;2.38;85.32
75549;BME280;64133;56.002;37.208;2024-03-23T03:38:42;97722.56;;;2.40;85.07
75549;BME280;64133;56.002;37.208;2024-03-23T03:43:47;97713.02;;;2.57;85.55
75549;BME280;64133;56.002;37.208;2024-03-23T03:48:52;97713.95;;;2.56;84.70
75549;BME280;64133;56.002;37.208;2024-03-23T03:53:57;97703.08;;;2.57;85.00
75549;BME280;64133;56.002;37.208;2024-03-23T03:59:02;97702.38;;;2.60;84.96
75549;BME280;64133;56.002;37.208;2024-03-23T04:04:07;97689.63;;;2.57;85.20
75549;BME280;64133;56.002;37.208;2024-03-23T04:09:12;97691.73;;;2.41;85.52
75549;BME280;64133;56.002;37.208;2024-03-23T04:14:17;97672.97;;;2.54;85.62
75549;BME280;64133;56.002;37.208;2024-03-23T04:19:22;97666.00;;;2.71;85.48
75549;BME280;64133;56.002;37.208;2024-03-23T04:24:27;97658.45;;;2.57;85.68
75549;BME280;64133;56.002;37.208;2024-03-23T04:29:32;97647.10;;;2.53;86.41
75549;BME280;64133;56.002;37.208;2024-03-23T04:34:37;97639.53;;;2.49;86.90
75549;BME280;64133;56.002;37.208;2024-03-23T04:39:42;97642.71;;;2.42;87.09
75549;BME280;64133;56.002;37.208;2024-03-23T04:44:47;97640.23;;;2.51;87.31
75549;BME280;64133;56.002;37.208;2024-03-23T04:49:52;97627.49;;;2.48;87.50
75549;BME280;64133;56.002;37.208;2024-03-23T04:54:57;97625.23;;;2.55;87.40
75549;BME280;64133;56.002;37.208;2024-03-23T05:00:03;97620.27;;;2.63;87.21
75549;BME280;64133;56.002;37.208;2024-03-23T05:05:09;97613.30;;;2.58;87.18
75549;BME280;64133;56.002;37.208;2024-03-23T05:10:14;97609.64;;;2.66;87.24
75549;BME280;64133;56.002;37.208;2024-03-23T05:15:19;97599.94;;;2.68;87.29
75549;BME280;64133;56.002;37.208;2024-03-23T05:20:24;97599.80;;;2.70;86.94
75549;BME280;64133;56.002;37.208;2024-03-23T05:25:29;97587.05;;;2.84;87.50
75549;BME280;64133;56.002;37.208;2024-03-23T05:30:34;97580.05;;;2.78;86.88
75549;BME280;64133;56.002;37.208;2024-03-23T05:35:39;97582.06;;;2.92;86.66
75549;BME280;64133;56.002;37.208;2024-03-23T05:40:53;97573.78;;;2.87;86.58
75549;BME280;64133;56.002;37.208;2024-03-23T05:45:59;97570.36;;;2.86;86.70
75549;BME280;64133;56.002;37.208;2024-03-23T05:51:04;97565.50;;;2.87;86.51
75549;BME280;64133;56.002;37.208;2024-03-23T05:56:09;97558.85;;;3.06;86.33
75549;BME280;64133;56.002;37.208;2024-03-23T06:01:14;97554.60;;;2.99;86.05
75549;BME280;64133;56.002;37.208;2024-03-23T06:06:19;97554.28;;;2.87;86.71
75549;BME280;64133;56.002;37.208;2024-03-23T06:11:24;97543.14;;;3.01;86.59
75549;BME280;64133;56.002;37.208;2024-03-23T06:16:29;97539.82;;;3.05;86.75
75549;BME280;64133;56.002;37.208;2024-03-23T06:21:34;97537.77;;;3.14;87.08
75549;BME280;64133;56.002;37.208;2024-03-23T06:26:39;97529.52;;;3.30;86.05
75549;BME280;64133;56.002;37.208;2024-03-23T06:31:44;97524.94;;;3.28;85.81
75549;BME280;64133;56.002;37.208;2024-03-23T06:36:49;97512.19;;;3.46;85.09
75549;BME280;64133;56.002;37.208;2024-03-23T06:41:54;97510.88;;;3.46;84.87
75549;BME280;64133;56.002;37.208;2024-03-23T06:46:59;97507.95;;;3.39;84.89
75549;BME280;64133;56.002;37.208;2024-03-23T06:52:05;97509.34;;;3.43;84.81
75549;BME280;64133;56.002;37.208;2024-03-23T06:57:10;97505.26;;;3.14;84.98
75549;BME280;64133;56.002;37.208;2024-03-23T07:07:32;97483.17;;;3.50;84.42
75549;BME280;64133;56.002;37.208;2024-03-23T07:12:38;97491.37;;;3.61;84.22
75549;BME280;64133;56.002;37.208;2024-03-23T07:17:48;97490.09;;;3.76;83.86
75549;BME280;64133;56.002;37.208;2024-03-23T07:22:53;97485.82;;;3.60;83.77
75549;BME280;64133;56.002;37.208;2024-03-23T07:27:59;97483.31;;;3.49;83.53
75549;BME280;64133;56.002;37.208;2024-03-23T07:33:04;97487.65;;;3.33;83.79
75549;BME280;64133;56.002;37.208;2024-03-23T07:38:09;97475.80;;;3.35;84.58
75549;BME280;64133;56.002;37.208;2024-03-23T07:43:21;97486.09;;;3.57;83.91
75549;BME280;64133;56.002;37.208;2024-03-23T07:48:27;97474.92;;;3.61;84.05
75549;BME280;64133;56.002;37.208;2024-03-23T07:53:32;97471.45;;;3.50;83.71
75549;BME280;64133;56.002;37.208;2024-03-23T07:58:37;97470.35;;;3.89;84.46
75549;BME280;64133;56.002;37.208;2024-03-23T08:03:42;97459.20;;;3.62;83.36
75549;BME280;64133;56.002;37.208;2024-03-23T08:08:47;97448.59;;;3.69;84.12
75549;BME280;64133;56.002;37.208;2024-03-23T08:13:52;97443.37;;;4.00;83.76
75549;BME280;64133;56.002;37.208;2024-03-23T08:18:57;97448.47;;;3.86;83.39
75549;BME280;64133;56.002;37.208;2024-03-23T08:24:02;97448.34;;;3.72;84.13
75549;BME280;64133;56.002;37.208;2024-03-23T08:29:07;97452.45;;;3.90;84.78
75549;BME280;64133;56.002;37.208;2024-03-23T08:34:12;97445.06;;;4.11;83.51
75549;BME280;64133;56.002;37.208;2024-03-23T08:39:18;97441.78;;;3.93;83.68
75549;BME280;64133;56.002;37.208;2024-03-23T08:44:23;97435.38;;;4.32;83.69
75549;BME280;64133;56.002;37.208;2024-03-23T08:49:28;97424.98;;;4.17;83.15
75549;BME280;64133;56.002;37.208;2024-03-23T08:54:33;97425.13;;;4.00;83.49
75549;BME280;64133;56.002;37.208;2024-03-23T08:59:45;97424.20;;;3.86;84.46
75549;BME280;64133;56.002;37.208;2024-03-23T09:04:50;97422.53;;;4.00;85.29
75549;BME280;64133;56.002;37.208;2024-03-23T09:09:55;97416.20;;;4.18;83.77
75549;BME280;64133;56.002;37.208;2024-03-23T09:15:00;97419.73;;;4.22;83.92
75549;BME280;64133;56.002;37.208;2024-03-23T09:20:07;97398.81;;;4.28;84.28
75549;BME280;64133;56.002;37.208;2024-03-23T09:25:12;97392.86;;;4.51;83.81
75549;BME280;64133;56.002;37.208;2024-03-23T09:30:17;97393.39;;;4.35;83.49
75549;BME280;64133;56.002;37.208;2024-03-23T09:35:22;97402.33;;;4.42;83.33
75549;BME280;64133;56.002;37.208;2024-03-23T09:40:27;97399.72;;;4.33;83.75
75549;BME280;64133;56.002;37.208;2024-03-23T09:45:32;97386.56;;;4.53;83.99
75549;BME280;64133;56.002;37.208;2024-03-23T09:50:38;97379.42;;;4.46;83.97
75549;BME280;64133;56.002;37.208;2024-03-23T09:55:46;97366.98;;;4.83;83.72
75549;BME280;64133;56.002;37.208;2024-03-23T10:00:51;97388.26;;;4.78;82.84
75549;BME280;64133;56.002;37.208;2024-03-23T10:11:18;97378.73;;;4.73;82.97
75549;BME280;64133;56.002;37.208;2024-03-23T10:16:23;97376.55;;;4.49;83.28
75549;BME280;64133;56.002;37.208;2024-03-23T10:21:28;97374.41;;;4.68;83.80
75549;BME280;64133;56.002;37.208;2024-03-23T10:26:33;97375.02;;;4.66;82.93
75549;BME280;64133;56.002;37.208;2024-03-23T10:31:38;97375.42;;;4.61;83.08
75549;BME280;64133;56.002;37.208;2024-03-23T10:36:44;97363.91;;;4.64;83.51
75549;BME280;64133;56.002;37.208;2024-03-23T10:41:49;97368.02;;;4.86;84.39
75549;BME280;64133;56.002;37.208;2024-03-23T10:46:55;97370.28;;;4.85;83.08
75549;BME280;64133;56.002;37.208;2024-03-23T10:52:00;97371.67;;;4.79;83.36
75549;BME280;64133;56.002;37.208;2024-03-23T10:57:06;97355.07;;;4.70;83.66
75549;BME280;64133;56.002;37.208;2024-03-23T11:02:17;97368.43;;;4.81;83.75
75549;BME280;64133;56.002;37.208;2024-03-23T11:07:32;97360.45;;;4.83;83.36
75549;BME280;64133;56.002;37.208;2024-03-23T11:12:37;97362.93;;;4.74;83.63
75549;BME280;64133;56.002;37.208;2024-03-23T11:17:42;97364.73;;;4.84;83.84
75549;BME280;64133;56.002;37.208;2024-03-23T11:22:49;97359.50;;;4.74;84.05
75549;BME280;64133;56.002;37.208;2024-03-23T11:27:52;97354.95;;;4.95;83.78
75549;BME280;64133;56.002;37.208;2024-03-23T11:32:57;97357.22;;;5.27;84.29
75549;BME280;64133;56.002;37.208;2024-03-23T11:38:09;97351.06;;;5.19;82.88
75549;BME280;64133;56.002;37.208;2024-03-23T11:43:14;97350.15;;;4.91;83.34
75549;BME280;64133;56.002;37.208;2024-03-23T11:48:24;97345.05;;;4.99;83.79
75549;BME280;64133;56.002;37.208;2024-03-23T11:53:29;97336.32;;;5.04;84.06
75549;BME280;64133;56.002;37.208;2024-03-23T11:58:35;97336.53;;;5.07;83.57
75549;BME280;64133;56.002;37.208;2024-03-23T12:03:49;97336.69;;;5.42;83.90
75549;BME280;64133;56.002;37.208;2024-03-23T12:08:54;97323.34;;;5.32;83.55
75549;BME280;64133;56.002;37.208;2024-03-23T12:14:00;97315.89;;;5.13;83.90
75549;BME280;64133;56.002;37.208;2024-03-23T12:19:07;97322.05;;;5.45;83.97
75549;BME280;64133;56.002;37.208;2024-03-23T12:24:21;97327.15;;;5.23;83.85
75549;BME280;64133;56.002;37.208;2024-03-23T12:29:27;97328.80;;;5.38;83.79
75549;BME280;64133;56.002;37.208;2024-03-23T12:34:39;97325.27;;;5.43;83.54
75549;BME280;64133;56.002;37.208;2024-03-23T12:39:44;97318.52;;;5.37;83.99
75549;BME280;64133;56.002;37.208;2024-03-23T12:44:53;97324.59;;;5.27;84.20
75549;BME280;64133;56.002;37.208;2024-03-23T12:49:58;97325.94;;;5.08;84.60
75549;BME280;64133;56.002;37.208;2024-03-23T13:00:25;97316.72;;;5.51;84.39
75549;BME280;64133;56.002;37.208;2024-03-23T13:05:31;97319.44;;;5.45;84.65
75549;BME280;64133;56.002;37.208;2024-03-23T13:10:36;97314.00;;;5.43;84.23
75549;BME280;64133;56.002;37.208;2024-03-23T13:15:41;97309.75;;;5.28;84.33
75549;BME280;64133;56.002;37.208;2024-03-23T13:20:46;97306.17;;;5.43;85.28
75549;BME280;64133;56.002;37.208;2024-03-23T13:25:52;97311.59;;;5.32;84.43
75549;BME280;64133;56.002;37.208;2024-03-23T13:30:57;97306.31;;;5.04;84.88
75549;BME280;64133;56.002;37.208;2024-03-23T13:36:05;97303.95;;;4.97;85.32
75549;BME280;64133;56.002;37.208;2024-03-23T13:41:13;97303.39;;;5.17;86.08
75549;BME280;64133;56.002;37.208;2024-03-23T13:46:18;97300.77;;;5.03;85.79
75549;BME280;64133;56.002;37.208;2024-03-23T13:51:25;97297.55;;;5.05;86.03
75549;BME280;64133;56.002;37.208;2024-03-23T13:56:33;97298.97;;;5.03;85.93
75549;BME280;64133;56.002;37.208;2024-03-23T14:01:38;97315.11;;;5.03;86.44
75549;BME280;64133;56.002;37.208;2024-03-23T14:06:44;97301.73;;;5.02;86.53
75549;BME280;64133;56.002;37.208;2024-03-23T14:11:50;97307.36;;;5.21;85.96
75549;BME280;64133;56.002;37.208;2024-03-23T14:16:55;97307.61;;;5.14;85.73
75549;BME280;64133;56.002;37.208;2024-03-23T14:22:00;97297.52;;;5.56;85.34
75549;BME280;64133;56.002;37.208;2024-03-23T14:27:05;97298.92;;;5.23;85.59
75549;BME280;64133;56.002;37.208;2024-03-23T14:32:12;97299.61;;;5.01;85.64
75549;BME280;64133;56.002;37.208;2024-03-23T14:37:20;97303.71;;;5.27;85.99
75549;BME280;64133;56.002;37.208;2024-03-23T14:42:25;97303.94;;;5.20;86.02
75549;BME280;64133;56.002;37.208;2024-03-23T14:47:30;97297.30;;;5.12;85.90
75549;BME280;64133;56.002;37.208;2024-03-23T14:52:36;97304.16;;;5.13;85.96
75549;BME280;64133;56.002;37.208;2024-03-23T14:57:44;97298.73;;;4.97;86.38
75549;BME280;64133;56.002;37.208;2024-03-23T15:02:46;97300.48;;;5.06;86.54
75549;BME280;64133;56.002;37.208;2024-03-23T15:07:51;97292.45;;;5.03;86.64
75549;BME280;64133;56.002;37.208;2024-03-23T15:12:56;97295.21;;;5.02;86.82
75549;BME280;64133;56.002;37.208;2024-03-23T15:18:02;97303.98;;;5.24;86.54
75549;BME280;64133;56.002;37.208;2024-03-23T15:23:07;97204.42;;;4.45;86.67
75549;BME280;64133;56.002;37.208;2024-03-23T15:28:15;97299.57;;;5.11;86.81
75549;BME280;64133;56.002;37.208;2024-03-23T15:33:17;97300.02;;;5.20;86.77
75549;BME280;64133;56.002;37.208;2024-03-23T15:38:23;97308.83;;;5.33;86.04
75549;BME280;64133;56.002;37.208;2024-03-23T15:43:28;97306.55;;;5.34;86.52
75549;BME280;64133;56.002;37.208;2024-03-23T15:48:33;97322.38;;;5.46;86.00
75549;BME280;64133;56.002;37.208;2024-03-23T15:53:38;97318.90;;;5.55;85.65
75549;BME280;64133;56.002;37.208;2024-03-23T15:58:43;97331.47;;;5.42;85.77
75549;BME280;64133;56.002;37.208;2024-03-23T16:03:49;97339.47;;;5.31;85.79
75549;BME280;64133;56.002;37.208;2024-03-23T16:08:54;97341.25;;;5.54;85.79
75549;BME280;64133;56.002;37.208;2024-03-23T16:14:01;97346.84;;;5.32;85.73
75549;BME280;64133;56.002;37.208;2024-03-23T16:19:06;97350.39;;;5.30;86.08
75549;BME280;64133;56.002;37.208;2024-03-23T16:24:13;97360.41;;;5.35;86.06
75549;BME280;64133;56.002;37.208;2024-03-23T16:29:18;97362.13;;;5.40;85.74
75549;BME280;64133;56.002;37.208;2024-03-23T16:34:23;97378.37;;;5.24;86.13
75549;BME280;64133;56.002;37.208;2024-03-23T16:39:28;97378.50;;;5.33;86.03
75549;BME280;64133;56.002;37.208;2024-03-23T16:44:33;97384.33;;;5.30;86.14
75549;BME280;64133;56.002;37.208;2024-03-23T16:49:38;97386.08;;;5.40;85.89
75549;BME280;64133;56.002;37.208;2024-03-23T16:54:44;97378.78;;;5.53;85.45
75549;BME280;64133;56.002;37.208;2024-03-23T16:59:48;97391.09;;;5.47;85.92
75549;BME280;64133;56.002;37.208;2024-03-23T17:04:54;97406.45;;;5.36;85.23
75549;BME280;64133;56.002;37.208;2024-03-23T17:09:59;97409.43;;;5.27;85.46
75549;BME280;64133;56.002;37.208;2024-03-23T17:15:06;97408.45;;;5.28;86.09
75549;BME280;64133;56.002;37.208;2024-03-23T17:20:12;97410.49;;;5.35;85.76
75549;BME280;64133;56.002;37.208;2024-03-23T17:25:18;97421.55;;;5.42;84.97
75549;BME280;64133;56.002;37.208;2024-03-23T17:30:23;97422.79;;;5.38;84.96
75549;BME280;64133;56.002;37.208;2024-03-23T17:35:28;97427.05;;;5.06;85.63
75549;BME280;64133;56.002;37.208;2024-03-23T17:40:33;97431.21;;;5.13;85.71
75549;BME280;64133;56.002;37.208;2024-03-23T17:45:38;97435.62;;;5.02;85.65
75549;BME280;64133;56.002;37.208;2024-03-23T17:50:43;97449.09;;;4.88;85.80
75549;BME280;64133;56.002;37.208;2024-03-23T17:55:48;97446.97;;;4.88;85.84
75549;BME280;64133;56.002;37.208;2024-03-23T18:00:53;97452.57;;;4.83;85.92
75549;BME280;64133;56.002;37.208;2024-03-23T18:05:58;97458.27;;;4.63;85.85
75549;BME280;64133;56.002;37.208;2024-03-23T18:11:09;97463.34;;;4.65;86.01
75549;BME280;64133;56.002;37.208;2024-03-23T18:16:14;97469.19;;;4.63;86.21
75549;BME280;64133;56.002;37.208;2024-03-23T18:21:19;97469.78;;;4.61;86.33
75549;BME280;64133;56.002;37.208;2024-03-23T18:26:24;97463.48;;;4.73;86.16
75549;BME280;64133;56.002;37.208;2024-03-23T18:31:29;97475.89;;;4.56;85.85
75549;BME280;64133;56.002;37.208;2024-03-23T18:36:34;97477.59;;;4.51;86.02
75549;BME280;64133;56.002;37.208;2024-03-23T18:41:39;97480.55;;;4.52;86.01
75549;BME280;64133;56.002;37.208;2024-03-23T18:46:44;97485.18;;;4.39;85.71
75549;BME280;64133;56.002;37.208;2024-03-23T18:51:55;97488.67;;;4.34;86.60
75549;BME280;64133;56.002;37.208;2024-03-23T18:57:00;97490.34;;;4.19;86.38
75549;BME280;64133;56.002;37.208;2024-03-23T19:02:05;97493.20;;;4.16;86.60
75549;BME280;64133;56.002;37.208;2024-03-23T19:07:10;97500.66;;;4.06;86.78
75549;BME280;64133;56.002;37.208;2024-03-23T19:12:15;97505.30;;;4.02;86.56
75549;BME280;64133;56.002;37.208;2024-03-23T19:17:20;97507.11;;;3.96;86.90
75549;BME280;64133;56.002;37.208;2024-03-23T19:22:26;97507.81;;;3.98;86.67
75549;BME280;64133;56.002;37.208;2024-03-23T19:27:31;97510.17;;;4.01;86.54
75549;BME280;64133;56.002;37.208;2024-03-23T19:32:39;97520.93;;;4.02;86.74
75549;BME280;64133;56.002;37.208;2024-03-23T19:37:44;97525.64;;;3.87;86.41
75549;BME280;64133;56.002;37.208;2024-03-23T19:42:50;97520.37;;;3.83;86.92
75549;BME280;64133;56.002;37.208;2024-03-23T19:47:55;97530.02;;;3.87;86.26
75549;BME280;64133;56.002;37.208;2024-03-23T19:53:03;97541.79;;;3.81;86.34
75549;BME280;64133;56.002;37.208;2024-03-23T19:58:12;97538.75;;;3.76;86.68
75549;BME280;64133;56.002;37.208;2024-03-23T20:03:16;97533.93;;;3.71;86.47
75549;BME280;64133;56.002;37.208;2024-03-23T20:08:22;97543.09;;;3.81;86.30
75549;BME280;64133;56.002;37.208;2024-03-23T20:13:28;97534.80;;;3.82;86.18
75549;BME280;64133;56.002;37.208;2024-03-23T20:18:35;97542.02;;;3.84;86.17
75549;BME280;64133;56.002;37.208;2024-03-23T20:23:41;97540.93;;;3.65;85.99
75549;BME280;64133;56.002;37.208;2024-03-23T20:28:46;97535.77;;;3.81;86.36
75549;BME280;64133;56.002;37.208;2024-03-23T20:33:51;97547.23;;;3.84;85.86
75549;BME280;64133;56.002;37.208;2024-03-23T20:38:56;97549.66;;;3.70;85.73
75549;BME280;64133;56.002;37.208;2024-03-23T20:44:01;97548.78;;;3.81;85.62
75549;BME280;64133;56.002;37.208;2024-03-23T20:49:06;97549.89;;;3.72;85.38
75549;BME280;64133;56.002;37.208;2024-03-23T20:54:11;97542.11;;;4.03;85.93
75549;BME280;64133;56.002;37.208;2024-03-23T20:59:16;97545.36;;;3.95;85.58
75549;BME280;64133;56.002;37.208;2024-03-23T21:04:21;97550.09;;;3.96;84.98
75549;BME280;64133;56.002;37.208;2024-03-23T21:09:27;97541.56;;;3.78;85.03
75549;BME280;64133;56.002;37.208;2024-03-23T21:14:32;97549.45;;;3.67;84.79
75549;BME280;64133;56.002;37.208;2024-03-23T21:19:37;97553.45;;;3.71;85.59
75549;BME280;64133;56.002;37.208;2024-03-23T21:24:42;97557.30;;;3.62;85.51
75549;BME280;64133;56.002;37.208;2024-03-23T21:29:47;97569.65;;;3.54;85.91
75549;BME280;64133;56.002;37.208;2024-03-23T21:35:11;97580.30;;;3.51;85.99
75549;BME280;64133;56.002;37.208;2024-03-23T21:40:16;97571.97;;;3.63;85.92
75549;BME280;64133;56.002;37.208;2024-03-23T21:45:21;97579.10;;;3.55;85.65
75549;BME280;64133;56.002;37.208;2024-03-23T21:50:26;97590.03;;;3.49;86.11
75549;BME280;64133;56.002;37.208;2024-03-23T21:55:31;97586.36;;;3.46;86.15
75549;BME280;64133;56.002;37.208;2024-03-23T22:00:38;97580.20;;;3.47;86.02
75549;BME280;64133;56.002;37.208;2024-03-23T22:05:42;97568.05;;;3.42;86.04
75549;BME280;64133;56.002;37.208;2024-03-23T22:10:50;97565.72;;;3.33;86.42
75549;BME280;64133;56.002;37.208;2024-03-23T22:15:59;97565.72;;;3.33;86.26
75549;BME280;64133;56.002;37.208;2024-03-23T22:21:04;97569.96;;;3.34;86.52
75549;BME280;64133;56.002;37.208;2024-03-23T22:26:09;97570.81;;;3.29;86.93
75549;BME280;64133;56.002;37.208;2024-03-23T22:31:14;97585.02;;;3.25;86.75
75549;BME280;64133;56.002;37.208;2024-03-23T22:36:19;97576.50;;;3.28;86.96
75549;BME280;64133;56.002;37.208;2024-03-23T22:41:24;97573.77;;;3.30;87.02
75549;BME280;64133;56.002;37.208;2024-03-23T22:46:29;97572.49;;;3.24;86.96
75549;BME280;64133;56.002;37.208;2024-03-23T22:51:34;97574.61;;;3.25;87.52
75549;BME280;64133;56.002;37.208;2024-03-23T22:56:39;97574.27;;;3.24;86.70
75549;BME280;64133;56.002;37.208;2024-03-23T23:01:44;97578.97;;;3.36;86.83
75549;BME280;64133;56.002;37.208;2024-03-23T23:06:49;97585.55;;;3.45;86.72
75549;BME280;64133;56.002;37.208;2024-03-23T23:11:54;97580.75;;;3.56;87.28
75549;BME280;64133;56.002;37.208;2024-03-23T23:16:59;97581.80;;;3.59;85.72
75549;BME280;64133;56.002;37.208;2024-03-23T23:22:04;97581.50;;;3.47;86.39
75549;BME280;64133;56.002;37.208;2024-03-23T23:27:09;97577.36;;;3.50;86.53
75549;BME280;64133;56.002;37.208;2024-03-23T23:32:14;97586.02;;;3.45;87.13
75549;BME280;64133;56.002;37.208;2024-03-23T23:37:19;97593.01;;;3.39;87.30
75549;BME280;64133;56.002;37.208;2024-03-23T23:42:24;97590.59;;;3.20;87.61
75549;BME280;64133;56.002;37.208;2024-03-23T23:47:29;97600.13;;;3.37;88.02
75549;BME280;64133;56.002;37.208;2024-03-23T23:52:34;97597.36;;;3.49;88.24
75549;BME280;64133;56.002;37.208;2024-03-23T23:57:40;97600.16;;;3.31;87.74
